sensor_id;sensor_type;location;lat;lon;timestamp;P1;durP1;ratioP1;P2;durP2;ratioP2
61108;SDS011;46995;55.740;37.402;2022-12-20T00:00:12;16.15;;;5.95;;
61108;SDS011;46995;55.740;37.402;2022-12-20T00:02:38;9.88;;;5.32;;
61108;SDS011;46995;55.740;37.402;2022-12-20T00:05:04;12.18;;;6.05;;
61108;SDS011;46995;55.740;37.402;2022-12-20T00:07:30;10.73;;;4.95;;
61108;SDS011;46995;55.740;37.402;2022-12-20T00:09:57;10.35;;;5.78;;
61108;SDS011;46995;55.740;37.402;2022-12-20T00:12:22;10.73;;;5.40;;
61108;SDS011;46995;55.740;37.402;2022-12-20T00:14:48;11.77;;;4.53;;
61108;SDS011;46995;55.740;37.402;2022-12-20T00:17:14;10.23;;;5.28;;
61108;SDS011;46995;55.740;37.402;2022-12-20T00:19:42;9.00;;;4.85;;
61108;SDS011;46995;55.740;37.402;2022-12-20T00:22:08;8.98;;;4.80;;
61108;SDS011;46995;55.740;37.402;2022-12-20T00:24:34;13.30;;;5.07;;
61108;SDS011;46995;55.740;37.402;2022-12-20T00:26:59;15.07;;;6.32;;
61108;SDS011;46995;55.740;37.402;2022-12-20T00:29:25;20.63;;;5.93;;
61108;SDS011;46995;55.740;37.402;2022-12-20T00:31:52;9.00;;;5.30;;
61108;SDS011;46995;55.740;37.402;2022-12-20T00:34:18;13.25;;;6.15;;
61108;SDS011;46995;55.740;37.402;2022-12-20T00:36:45;12.45;;;6.72;;
61108;SDS011;46995;55.740;37.402;2022-12-20T00:39:11;13.90;;;6.30;;
61108;SDS011;46995;55.740;37.402;2022-12-20T00:41:36;12.75;;;6.65;;
61108;SDS011;46995;55.740;37.402;2022-12-20T00:44:02;11.45;;;5.57;;
61108;SDS011;46995;55.740;37.402;2022-12-20T00:46:29;14.98;;;7.28;;
61108;SDS011;46995;55.740;37.402;2022-12-20T00:48:57;13.63;;;7.15;;
61108;SDS011;46995;55.740;37.402;2022-12-20T00:51:25;10.88;;;5.70;;
61108;SDS011;46995;55.740;37.402;2022-12-20T00:53:52;13.20;;;6.43;;
61108;SDS011;46995;55.740;37.402;2022-12-20T00:56:19;12.97;;;6.13;;
61108;SDS011;46995;55.740;37.402;2022-12-20T00:58:45;13.07;;;5.97;;
61108;SDS011;46995;55.740;37.402;2022-12-20T01:01:19;13.73;;;5.82;;
61108;SDS011;46995;55.740;37.402;2022-12-20T01:03:47;13.75;;;6.47;;
61108;SDS011;46995;55.740;37.402;2022-12-20T01:06:14;14.43;;;5.45;;
61108;SDS011;46995;55.740;37.402;2022-12-20T01:08:41;9.45;;;5.40;;
61108;SDS011;46995;55.740;37.402;2022-12-20T01:11:08;12.95;;;6.25;;
61108;SDS011;46995;55.740;37.402;2022-12-20T01:13:37;8.80;;;5.18;;
61108;SDS011;46995;55.740;37.402;2022-12-20T01:16:06;10.88;;;5.43;;
61108;SDS011;46995;55.740;37.402;2022-12-20T01:18:34;10.90;;;5.32;;
61108;SDS011;46995;55.740;37.402;2022-12-20T01:21:01;8.48;;;4.88;;
61108;SDS011;46995;55.740;37.402;2022-12-20T01:23:31;12.05;;;5.57;;
61108;SDS011;46995;55.740;37.402;2022-12-20T01:26:01;10.00;;;5.43;;
61108;SDS011;46995;55.740;37.402;2022-12-20T01:28:29;11.10;;;6.30;;
61108;SDS011;46995;55.740;37.402;2022-12-20T01:30:55;12.13;;;5.85;;
61108;SDS011;46995;55.740;37.402;2022-12-20T01:33:22;10.40;;;5.47;;
61108;SDS011;46995;55.740;37.402;2022-12-20T01:35:55;13.20;;;6.05;;
61108;SDS011;46995;55.740;37.402;2022-12-20T01:38:21;11.13;;;5.97;;
61108;SDS011;46995;55.740;37.402;2022-12-20T01:40:46;14.00;;;6.07;;
61108;SDS011;46995;55.740;37.402;2022-12-20T01:43:13;12.40;;;5.85;;
61108;SDS011;46995;55.740;37.402;2022-12-20T01:45:41;12.90;;;6.63;;
61108;SDS011;46995;55.740;37.402;2022-12-20T01:48:07;11.55;;;6.35;;
61108;SDS011;46995;55.740;37.402;2022-12-20T01:50:34;8.90;;;5.00;;
61108;SDS011;46995;55.740;37.402;2022-12-20T01:53:00;10.77;;;5.38;;
61108;SDS011;46995;55.740;37.402;2022-12-20T01:55:28;11.90;;;5.80;;
61108;SDS011;46995;55.740;37.402;2022-12-20T01:57:58;14.25;;;5.88;;
61108;SDS011;46995;55.740;37.402;2022-12-20T02:00:27;12.45;;;6.13;;
61108;SDS011;46995;55.740;37.402;2022-12-20T02:02:53;10.27;;;5.77;;
61108;SDS011;46995;55.740;37.402;2022-12-20T02:05:23;9.48;;;4.53;;
61108;SDS011;46995;55.740;37.402;2022-12-20T02:07:50;15.25;;;6.00;;
61108;SDS011;46995;55.740;37.402;2022-12-20T02:10:19;10.15;;;5.15;;
61108;SDS011;46995;55.740;37.402;2022-12-20T02:12:48;13.52;;;6.60;;
61108;SDS011;46995;55.740;37.402;2022-12-20T02:26:19;13.00;;;5.30;;
61108;SDS011;46995;55.740;37.402;2022-12-20T02:31:41;13.50;;;6.43;;
61108;SDS011;46995;55.740;37.402;2022-12-20T02:34:12;14.68;;;5.65;;
61108;SDS011;46995;55.740;37.402;2022-12-20T02:36:39;12.45;;;6.18;;
61108;SDS011;46995;55.740;37.402;2022-12-20T02:39:05;10.02;;;4.75;;
61108;SDS011;46995;55.740;37.402;2022-12-20T02:41:33;16.60;;;6.47;;
61108;SDS011;46995;55.740;37.402;2022-12-20T02:44:04;13.23;;;6.40;;
61108;SDS011;46995;55.740;37.402;2022-12-20T02:46:53;8.93;;;5.38;;
61108;SDS011;46995;55.740;37.402;2022-12-20T02:49:23;11.68;;;5.88;;
61108;SDS011;46995;55.740;37.402;2022-12-20T02:51:56;15.75;;;6.38;;
61108;SDS011;46995;55.740;37.402;2022-12-20T02:54:25;13.02;;;6.45;;
61108;SDS011;46995;55.740;37.402;2022-12-20T02:56:55;16.75;;;7.10;;
61108;SDS011;46995;55.740;37.402;2022-12-20T02:59:29;13.30;;;6.70;;
61108;SDS011;46995;55.740;37.402;2022-12-20T03:02:03;12.45;;;5.78;;
61108;SDS011;46995;55.740;37.402;2022-12-20T03:04:32;13.52;;;6.00;;
61108;SDS011;46995;55.740;37.402;2022-12-20T03:07:06;15.63;;;6.53;;
61108;SDS011;46995;55.740;37.402;2022-12-20T03:09:36;12.63;;;5.57;;
61108;SDS011;46995;55.740;37.402;2022-12-20T03:12:04;13.90;;;6.28;;
61108;SDS011;46995;55.740;37.402;2022-12-20T03:14:34;12.88;;;5.93;;
61108;SDS011;46995;55.740;37.402;2022-12-20T03:17:02;17.02;;;6.53;;
61108;SDS011;46995;55.740;37.402;2022-12-20T03:19:29;15.75;;;6.55;;
61108;SDS011;46995;55.740;37.402;2022-12-20T03:21:56;18.10;;;7.07;;
61108;SDS011;46995;55.740;37.402;2022-12-20T03:24:22;16.30;;;6.50;;
61108;SDS011;46995;55.740;37.402;2022-12-20T03:26:49;13.17;;;5.93;;
61108;SDS011;46995;55.740;37.402;2022-12-20T03:29:17;11.82;;;5.93;;
61108;SDS011;46995;55.740;37.402;2022-12-20T03:31:43;14.93;;;6.97;;
61108;SDS011;46995;55.740;37.402;2022-12-20T03:34:09;17.00;;;7.33;;
61108;SDS011;46995;55.740;37.402;2022-12-20T03:36:35;15.48;;;8.00;;
61108;SDS011;46995;55.740;37.402;2022-12-20T03:39:04;21.13;;;8.65;;
61108;SDS011;46995;55.740;37.402;2022-12-20T03:41:33;17.77;;;7.97;;
61108;SDS011;46995;55.740;37.402;2022-12-20T03:44:00;18.42;;;7.80;;
61108;SDS011;46995;55.740;37.402;2022-12-20T03:46:26;15.35;;;6.95;;
61108;SDS011;46995;55.740;37.402;2022-12-20T03:48:53;18.55;;;8.07;;
61108;SDS011;46995;55.740;37.402;2022-12-20T03:51:19;16.38;;;6.28;;
61108;SDS011;46995;55.740;37.402;2022-12-20T03:53:46;17.95;;;8.32;;
61108;SDS011;46995;55.740;37.402;2022-12-20T03:56:13;19.85;;;7.88;;
61108;SDS011;46995;55.740;37.402;2022-12-20T03:58:40;13.27;;;7.45;;
61108;SDS011;46995;55.740;37.402;2022-12-20T04:01:19;18.02;;;8.73;;
61108;SDS011;46995;55.740;37.402;2022-12-20T04:03:48;19.55;;;8.75;;
61108;SDS011;46995;55.740;37.402;2022-12-20T04:06:15;27.98;;;9.10;;
61108;SDS011;46995;55.740;37.402;2022-12-20T04:08:42;17.05;;;7.80;;
61108;SDS011;46995;55.740;37.402;2022-12-20T04:11:10;22.02;;;8.68;;
61108;SDS011;46995;55.740;37.402;2022-12-20T04:13:51;17.52;;;8.40;;
61108;SDS011;46995;55.740;37.402;2022-12-20T04:16:19;18.33;;;10.10;;
61108;SDS011;46995;55.740;37.402;2022-12-20T04:18:47;20.33;;;8.45;;
61108;SDS011;46995;55.740;37.402;2022-12-20T04:21:13;19.27;;;9.18;;
61108;SDS011;46995;55.740;37.402;2022-12-20T04:23:45;20.02;;;8.85;;
61108;SDS011;46995;55.740;37.402;2022-12-20T04:26:11;17.63;;;8.05;;
61108;SDS011;46995;55.740;37.402;2022-12-20T04:28:37;19.55;;;9.38;;
61108;SDS011;46995;55.740;37.402;2022-12-20T04:31:08;23.70;;;9.45;;
61108;SDS011;46995;55.740;37.402;2022-12-20T04:33:39;20.38;;;9.48;;
61108;SDS011;46995;55.740;37.402;2022-12-20T04:36:07;23.10;;;10.45;;
61108;SDS011;46995;55.740;37.402;2022-12-20T04:38:34;26.63;;;10.02;;
61108;SDS011;46995;55.740;37.402;2022-12-20T04:41:00;20.55;;;8.95;;
61108;SDS011;46995;55.740;37.402;2022-12-20T04:43:33;30.05;;;12.48;;
61108;SDS011;46995;55.740;37.402;2022-12-20T04:45:59;20.48;;;10.07;;
61108;SDS011;46995;55.740;37.402;2022-12-20T04:48:25;23.50;;;9.60;;
61108;SDS011;46995;55.740;37.402;2022-12-20T04:50:53;25.05;;;10.63;;
61108;SDS011;46995;55.740;37.402;2022-12-20T04:53:21;18.02;;;9.40;;
61108;SDS011;46995;55.740;37.402;2022-12-20T04:56:06;25.48;;;10.48;;
61108;SDS011;46995;55.740;37.402;2022-12-20T04:58:32;21.17;;;9.80;;
61108;SDS011;46995;55.740;37.402;2022-12-20T05:00:58;24.25;;;11.55;;
61108;SDS011;46995;55.740;37.402;2022-12-20T05:03:30;22.88;;;10.00;;
61108;SDS011;46995;55.740;37.402;2022-12-20T05:05:56;28.38;;;10.52;;
61108;SDS011;46995;55.740;37.402;2022-12-20T05:08:22;26.48;;;9.65;;
61108;SDS011;46995;55.740;37.402;2022-12-20T05:10:50;22.17;;;9.75;;
61108;SDS011;46995;55.740;37.402;2022-12-20T05:13:16;27.08;;;10.88;;
61108;SDS011;46995;55.740;37.402;2022-12-20T05:15:43;23.42;;;8.93;;
61108;SDS011;46995;55.740;37.402;2022-12-20T05:18:10;23.02;;;10.38;;
61108;SDS011;46995;55.740;37.402;2022-12-20T05:20:46;23.42;;;10.38;;
61108;SDS011;46995;55.740;37.402;2022-12-20T05:23:13;23.10;;;10.90;;
61108;SDS011;46995;55.740;37.402;2022-12-20T05:26:07;23.52;;;9.52;;
61108;SDS011;46995;55.740;37.402;2022-12-20T05:28:42;23.48;;;9.93;;
61108;SDS011;46995;55.740;37.402;2022-12-20T05:31:09;26.05;;;9.88;;
61108;SDS011;46995;55.740;37.402;2022-12-20T05:33:35;28.45;;;10.63;;
61108;SDS011;46995;55.740;37.402;2022-12-20T05:36:02;24.45;;;9.65;;
61108;SDS011;46995;55.740;37.402;2022-12-20T05:38:28;28.05;;;10.35;;
61108;SDS011;46995;55.740;37.402;2022-12-20T05:40:55;22.88;;;9.32;;
61108;SDS011;46995;55.740;37.402;2022-12-20T05:43:20;31.40;;;10.25;;
61108;SDS011;46995;55.740;37.402;2022-12-20T05:45:47;25.38;;;9.85;;
61108;SDS011;46995;55.740;37.402;2022-12-20T05:48:18;21.02;;;9.57;;
61108;SDS011;46995;55.740;37.402;2022-12-20T05:50:45;21.63;;;9.20;;
61108;SDS011;46995;55.740;37.402;2022-12-20T05:53:29;22.83;;;8.77;;
61108;SDS011;46995;55.740;37.402;2022-12-20T05:55:58;24.15;;;10.32;;
61108;SDS011;46995;55.740;37.402;2022-12-20T05:58:30;20.38;;;9.13;;
61108;SDS011;46995;55.740;37.402;2022-12-20T06:00:59;22.63;;;10.27;;
61108;SDS011;46995;55.740;37.402;2022-12-20T06:03:28;20.55;;;8.98;;
61108;SDS011;46995;55.740;37.402;2022-12-20T06:05:54;22.08;;;9.55;;
61108;SDS011;46995;55.740;37.402;2022-12-20T06:08:25;20.13;;;9.18;;
61108;SDS011;46995;55.740;37.402;2022-12-20T06:10:53;26.70;;;8.90;;
61108;SDS011;46995;55.740;37.402;2022-12-20T06:13:20;17.15;;;8.27;;
61108;SDS011;46995;55.740;37.402;2022-12-20T06:15:49;28.40;;;9.55;;
61108;SDS011;46995;55.740;37.402;2022-12-20T06:18:17;24.42;;;9.55;;
61108;SDS011;46995;55.740;37.402;2022-12-20T06:20:48;18.88;;;9.35;;
61108;SDS011;46995;55.740;37.402;2022-12-20T06:23:21;23.63;;;9.27;;
61108;SDS011;46995;55.740;37.402;2022-12-20T06:25:57;21.88;;;8.55;;
61108;SDS011;46995;55.740;37.402;2022-12-20T06:28:25;21.48;;;8.30;;
61108;SDS011;46995;55.740;37.402;2022-12-20T06:30:53;19.17;;;8.20;;
61108;SDS011;46995;55.740;37.402;2022-12-20T06:33:34;19.25;;;8.15;;
61108;SDS011;46995;55.740;37.402;2022-12-20T06:36:01;16.52;;;7.63;;
61108;SDS011;46995;55.740;37.402;2022-12-20T06:38:28;17.92;;;8.65;;
61108;SDS011;46995;55.740;37.402;2022-12-20T06:40:54;16.42;;;7.78;;
61108;SDS011;46995;55.740;37.402;2022-12-20T06:43:20;18.20;;;7.00;;
61108;SDS011;46995;55.740;37.402;2022-12-20T06:45:46;20.15;;;7.57;;
61108;SDS011;46995;55.740;37.402;2022-12-20T06:48:13;16.08;;;7.03;;
61108;SDS011;46995;55.740;37.402;2022-12-20T06:50:41;20.02;;;7.03;;
61108;SDS011;46995;55.740;37.402;2022-12-20T06:53:07;15.23;;;6.38;;
61108;SDS011;46995;55.740;37.402;2022-12-20T06:55:33;13.73;;;6.55;;
61108;SDS011;46995;55.740;37.402;2022-12-20T06:57:59;17.55;;;7.10;;
61108;SDS011;46995;55.740;37.402;2022-12-20T07:00:25;14.43;;;7.20;;
61108;SDS011;46995;55.740;37.402;2022-12-20T07:02:51;14.50;;;5.85;;
61108;SDS011;46995;55.740;37.402;2022-12-20T07:05:17;16.98;;;6.13;;
61108;SDS011;46995;55.740;37.402;2022-12-20T07:07:43;15.40;;;6.93;;
61108;SDS011;46995;55.740;37.402;2022-12-20T07:10:08;10.95;;;5.05;;
61108;SDS011;46995;55.740;37.402;2022-12-20T07:12:34;13.25;;;5.72;;
61108;SDS011;46995;55.740;37.402;2022-12-20T07:15:00;14.15;;;6.18;;
61108;SDS011;46995;55.740;37.402;2022-12-20T07:17:26;14.55;;;6.45;;
61108;SDS011;46995;55.740;37.402;2022-12-20T07:19:52;12.27;;;4.85;;
61108;SDS011;46995;55.740;37.402;2022-12-20T07:22:17;11.70;;;4.82;;
61108;SDS011;46995;55.740;37.402;2022-12-20T07:24:44;14.80;;;4.93;;
61108;SDS011;46995;55.740;37.402;2022-12-20T07:27:10;13.55;;;5.85;;
61108;SDS011;46995;55.740;37.402;2022-12-20T07:29:36;11.63;;;5.88;;
61108;SDS011;46995;55.740;37.402;2022-12-20T07:32:04;11.98;;;5.75;;
61108;SDS011;46995;55.740;37.402;2022-12-20T07:34:31;11.70;;;5.70;;
61108;SDS011;46995;55.740;37.402;2022-12-20T07:36:56;11.80;;;5.50;;
61108;SDS011;46995;55.740;37.402;2022-12-20T07:39:23;10.50;;;4.90;;
61108;SDS011;46995;55.740;37.402;2022-12-20T07:41:52;11.82;;;5.32;;
61108;SDS011;46995;55.740;37.402;2022-12-20T07:44:21;11.57;;;5.18;;
61108;SDS011;46995;55.740;37.402;2022-12-20T07:46:47;9.00;;;4.70;;
61108;SDS011;46995;55.740;37.402;2022-12-20T07:49:13;7.80;;;3.53;;
61108;SDS011;46995;55.740;37.402;2022-12-20T07:51:49;12.95;;;4.68;;
61108;SDS011;46995;55.740;37.402;2022-12-20T07:54:19;11.65;;;4.50;;
61108;SDS011;46995;55.740;37.402;2022-12-20T07:56:50;12.73;;;4.75;;
61108;SDS011;46995;55.740;37.402;2022-12-20T07:59:22;9.75;;;4.70;;
61108;SDS011;46995;55.740;37.402;2022-12-20T08:02:10;7.68;;;3.65;;
61108;SDS011;46995;55.740;37.402;2022-12-20T08:04:42;7.55;;;4.38;;
61108;SDS011;46995;55.740;37.402;2022-12-20T08:07:09;10.82;;;4.82;;
61108;SDS011;46995;55.740;37.402;2022-12-20T08:09:35;9.05;;;3.92;;
61108;SDS011;46995;55.740;37.402;2022-12-20T08:12:06;11.23;;;4.00;;
61108;SDS011;46995;55.740;37.402;2022-12-20T08:14:33;11.20;;;4.60;;
61108;SDS011;46995;55.740;37.402;2022-12-20T08:16:58;8.40;;;4.28;;
61108;SDS011;46995;55.740;37.402;2022-12-20T08:19:24;7.57;;;3.92;;
61108;SDS011;46995;55.740;37.402;2022-12-20T08:21:50;9.90;;;3.58;;
61108;SDS011;46995;55.740;37.402;2022-12-20T08:24:16;8.43;;;3.50;;
61108;SDS011;46995;55.740;37.402;2022-12-20T08:26:42;8.98;;;3.97;;
61108;SDS011;46995;55.740;37.402;2022-12-20T08:29:07;10.48;;;3.47;;
61108;SDS011;46995;55.740;37.402;2022-12-20T08:31:40;10.95;;;4.78;;
61108;SDS011;46995;55.740;37.402;2022-12-20T08:34:08;9.05;;;4.45;;
61108;SDS011;46995;55.740;37.402;2022-12-20T08:36:34;9.32;;;4.28;;
61108;SDS011;46995;55.740;37.402;2022-12-20T08:39:02;13.50;;;4.10;;
61108;SDS011;46995;55.740;37.402;2022-12-20T08:41:29;9.52;;;4.57;;
61108;SDS011;46995;55.740;37.402;2022-12-20T08:43:58;8.68;;;4.13;;
61108;SDS011;46995;55.740;37.402;2022-12-20T08:46:24;10.02;;;4.40;;
61108;SDS011;46995;55.740;37.402;2022-12-20T08:48:50;6.82;;;3.97;;
61108;SDS011;46995;55.740;37.402;2022-12-20T08:51:17;11.27;;;5.28;;
61108;SDS011;46995;55.740;37.402;2022-12-20T08:53:43;9.15;;;4.72;;
61108;SDS011;46995;55.740;37.402;2022-12-20T08:56:10;7.85;;;4.68;;
61108;SDS011;46995;55.740;37.402;2022-12-20T08:58:40;8.55;;;4.80;;
61108;SDS011;46995;55.740;37.402;2022-12-20T09:06:03;6.68;;;3.35;;
61108;SDS011;46995;55.740;37.402;2022-12-20T09:08:31;10.35;;;5.50;;
61108;SDS011;46995;55.740;37.402;2022-12-20T09:11:02;9.45;;;4.95;;
61108;SDS011;46995;55.740;37.402;2022-12-20T09:13:32;11.82;;;4.60;;
61108;SDS011;46995;55.740;37.402;2022-12-20T09:15:59;12.18;;;5.63;;
61108;SDS011;46995;55.740;37.402;2022-12-20T09:18:26;9.20;;;4.20;;
61108;SDS011;46995;55.740;37.402;2022-12-20T09:20:52;11.90;;;5.03;;
61108;SDS011;46995;55.740;37.402;2022-12-20T09:23:17;10.02;;;4.50;;
61108;SDS011;46995;55.740;37.402;2022-12-20T09:25:43;10.95;;;4.38;;
61108;SDS011;46995;55.740;37.402;2022-12-20T09:28:09;12.55;;;5.47;;
61108;SDS011;46995;55.740;37.402;2022-12-20T09:30:38;11.02;;;4.32;;
61108;SDS011;46995;55.740;37.402;2022-12-20T09:33:04;7.55;;;4.00;;
61108;SDS011;46995;55.740;37.402;2022-12-20T09:35:29;8.68;;;5.03;;
61108;SDS011;46995;55.740;37.402;2022-12-20T09:38:02;8.70;;;4.35;;
61108;SDS011;46995;55.740;37.402;2022-12-20T09:40:29;8.18;;;4.32;;
61108;SDS011;46995;55.740;37.402;2022-12-20T09:42:57;18.17;;;5.43;;
61108;SDS011;46995;55.740;37.402;2022-12-20T09:45:27;11.95;;;5.30;;
61108;SDS011;46995;55.740;37.402;2022-12-20T09:47:56;9.40;;;5.18;;
61108;SDS011;46995;55.740;37.402;2022-12-20T09:50:31;8.80;;;4.68;;
61108;SDS011;46995;55.740;37.402;2022-12-20T09:59:24;8.85;;;4.47;;
61108;SDS011;46995;55.740;37.402;2022-12-20T10:01:51;8.93;;;4.68;;
61108;SDS011;46995;55.740;37.402;2022-12-20T10:04:24;10.38;;;4.85;;
61108;SDS011;46995;55.740;37.402;2022-12-20T10:12:39;11.77;;;5.30;;
61108;SDS011;46995;55.740;37.402;2022-12-20T10:15:21;9.48;;;4.60;;
61108;SDS011;46995;55.740;37.402;2022-12-20T10:17:57;13.05;;;4.70;;
61108;SDS011;46995;55.740;37.402;2022-12-20T10:25:56;9.73;;;4.38;;
61108;SDS011;46995;55.740;37.402;2022-12-20T10:28:29;14.05;;;4.88;;
61108;SDS011;46995;55.740;37.402;2022-12-20T10:33:32;9.05;;;3.95;;
61108;SDS011;46995;55.740;37.402;2022-12-20T10:38:48;15.63;;;5.45;;
61108;SDS011;46995;55.740;37.402;2022-12-20T10:41:17;12.65;;;5.78;;
61108;SDS011;46995;55.740;37.402;2022-12-20T10:43:50;10.88;;;5.57;;
61108;SDS011;46995;55.740;37.402;2022-12-20T10:46:20;14.70;;;6.15;;
61108;SDS011;46995;55.740;37.402;2022-12-20T10:48:47;11.60;;;5.78;;
61108;SDS011;46995;55.740;37.402;2022-12-20T10:51:16;14.13;;;6.40;;
61108;SDS011;46995;55.740;37.402;2022-12-20T10:56:17;11.00;;;5.85;;
61108;SDS011;46995;55.740;37.402;2022-12-20T10:58:50;11.63;;;5.65;;
61108;SDS011;46995;55.740;37.402;2022-12-20T11:01:35;10.98;;;6.00;;
61108;SDS011;46995;55.740;37.402;2022-12-20T11:06:52;13.85;;;5.70;;
61108;SDS011;46995;55.740;37.402;2022-12-20T11:09:23;9.82;;;4.82;;
61108;SDS011;46995;55.740;37.402;2022-12-20T11:14:36;13.63;;;5.45;;
61108;SDS011;46995;55.740;37.402;2022-12-20T11:17:04;13.00;;;6.30;;
61108;SDS011;46995;55.740;37.402;2022-12-20T11:22:44;15.13;;;6.30;;
61108;SDS011;46995;55.740;37.402;2022-12-20T11:31:17;10.93;;;5.95;;
61108;SDS011;46995;55.740;37.402;2022-12-20T11:37:25;11.80;;;5.45;;
61108;SDS011;46995;55.740;37.402;2022-12-20T11:52:35;13.30;;;6.40;;
61108;SDS011;46995;55.740;37.402;2022-12-20T11:57:53;15.65;;;7.40;;
61108;SDS011;46995;55.740;37.402;2022-12-20T12:00:26;10.95;;;5.63;;
61108;SDS011;46995;55.740;37.402;2022-12-20T12:02:55;9.97;;;5.00;;
61108;SDS011;46995;55.740;37.402;2022-12-20T12:08:04;11.18;;;5.25;;
61108;SDS011;46995;55.740;37.402;2022-12-20T12:10:39;8.20;;;4.43;;
61108;SDS011;46995;55.740;37.402;2022-12-20T12:13:15;10.00;;;5.05;;
61108;SDS011;46995;55.740;37.402;2022-12-20T12:18:36;8.25;;;4.55;;
61108;SDS011;46995;55.740;37.402;2022-12-20T12:26:54;8.77;;;4.50;;
61108;SDS011;46995;55.740;37.402;2022-12-20T12:29:23;8.75;;;3.70;;
61108;SDS011;46995;55.740;37.402;2022-12-20T12:37:54;8.82;;;3.95;;
61108;SDS011;46995;55.740;37.402;2022-12-20T12:46:08;9.38;;;4.15;;
61108;SDS011;46995;55.740;37.402;2022-12-20T12:48:44;9.10;;;4.18;;
61108;SDS011;46995;55.740;37.402;2022-12-20T12:51:19;9.40;;;4.32;;
61108;SDS011;46995;55.740;37.402;2022-12-20T12:53:53;8.38;;;4.07;;
61108;SDS011;46995;55.740;37.402;2022-12-20T12:59:14;12.30;;;4.75;;
61108;SDS011;46995;55.740;37.402;2022-12-20T13:04:54;6.68;;;3.75;;
61108;SDS011;46995;55.740;37.402;2022-12-20T13:07:43;8.93;;;3.95;;
61108;SDS011;46995;55.740;37.402;2022-12-20T13:20:28;7.45;;;4.28;;
61108;SDS011;46995;55.740;37.402;2022-12-20T13:25:34;12.38;;;4.75;;
61108;SDS011;46995;55.740;37.402;2022-12-20T13:28:47;8.20;;;4.47;;
61108;SDS011;46995;55.740;37.402;2022-12-20T13:33:42;7.50;;;3.92;;
61108;SDS011;46995;55.740;37.402;2022-12-20T13:43:48;9.70;;;4.60;;
61108;SDS011;46995;55.740;37.402;2022-12-20T13:46:24;8.77;;;4.45;;
61108;SDS011;46995;55.740;37.402;2022-12-20T13:49:03;10.27;;;4.63;;
61108;SDS011;46995;55.740;37.402;2022-12-20T13:51:34;9.85;;;4.75;;
61108;SDS011;46995;55.740;37.402;2022-12-20T13:54:01;8.23;;;4.43;;
61108;SDS011;46995;55.740;37.402;2022-12-20T13:59:26;10.50;;;4.35;;
61108;SDS011;46995;55.740;37.402;2022-12-20T14:01:57;11.27;;;5.40;;
61108;SDS011;46995;55.740;37.402;2022-12-20T14:04:25;8.98;;;4.47;;
61108;SDS011;46995;55.740;37.402;2022-12-20T14:07:02;9.52;;;4.70;;
61108;SDS011;46995;55.740;37.402;2022-12-20T14:09:30;9.10;;;4.63;;
61108;SDS011;46995;55.740;37.402;2022-12-20T14:12:02;10.50;;;4.13;;
61108;SDS011;46995;55.740;37.402;2022-12-20T14:14:29;11.38;;;5.20;;
61108;SDS011;46995;55.740;37.402;2022-12-20T14:16:55;9.48;;;4.35;;
61108;SDS011;46995;55.740;37.402;2022-12-20T14:19:40;9.30;;;4.30;;
61108;SDS011;46995;55.740;37.402;2022-12-20T14:22:06;10.85;;;4.90;;
61108;SDS011;46995;55.740;37.402;2022-12-20T14:24:34;12.77;;;4.60;;
61108;SDS011;46995;55.740;37.402;2022-12-20T14:27:03;10.20;;;4.85;;
61108;SDS011;46995;55.740;37.402;2022-12-20T14:29:29;9.15;;;5.22;;
61108;SDS011;46995;55.740;37.402;2022-12-20T14:31:56;9.20;;;4.22;;
61108;SDS011;46995;55.740;37.402;2022-12-20T14:34:26;8.23;;;4.00;;
61108;SDS011;46995;55.740;37.402;2022-12-20T14:39:55;10.23;;;4.75;;
61108;SDS011;46995;55.740;37.402;2022-12-20T14:42:43;12.38;;;5.10;;
61108;SDS011;46995;55.740;37.402;2022-12-20T14:47:50;12.13;;;5.47;;
61108;SDS011;46995;55.740;37.402;2022-12-20T14:50:21;11.82;;;5.40;;
61108;SDS011;46995;55.740;37.402;2022-12-20T14:52:52;7.90;;;4.30;;
61108;SDS011;46995;55.740;37.402;2022-12-20T14:55:19;23.60;;;5.20;;
61108;SDS011;46995;55.740;37.402;2022-12-20T14:57:50;9.93;;;4.85;;
61108;SDS011;46995;55.740;37.402;2022-12-20T15:00:21;13.90;;;5.30;;
61108;SDS011;46995;55.740;37.402;2022-12-20T15:02:55;12.32;;;5.60;;
61108;SDS011;46995;55.740;37.402;2022-12-20T15:08:26;10.98;;;4.88;;
61108;SDS011;46995;55.740;37.402;2022-12-20T15:10:58;14.45;;;5.53;;
61108;SDS011;46995;55.740;37.402;2022-12-20T15:13:29;11.63;;;5.78;;
61108;SDS011;46995;55.740;37.402;2022-12-20T15:16:16;10.05;;;5.03;;
61108;SDS011;46995;55.740;37.402;2022-12-20T15:18:48;11.40;;;4.82;;
61108;SDS011;46995;55.740;37.402;2022-12-20T15:23:54;9.05;;;4.63;;
61108;SDS011;46995;55.740;37.402;2022-12-20T15:26:23;12.15;;;5.70;;
61108;SDS011;46995;55.740;37.402;2022-12-20T15:28:51;15.10;;;5.55;;
61108;SDS011;46995;55.740;37.402;2022-12-20T15:31:18;12.25;;;5.43;;
61108;SDS011;46995;55.740;37.402;2022-12-20T15:33:46;14.02;;;6.35;;
61108;SDS011;46995;55.740;37.402;2022-12-20T15:36:21;11.05;;;5.10;;
61108;SDS011;46995;55.740;37.402;2022-12-20T15:38:53;22.42;;;9.73;;
61108;SDS011;46995;55.740;37.402;2022-12-20T15:43:46;14.45;;;6.43;;
61108;SDS011;46995;55.740;37.402;2022-12-20T15:46:14;11.65;;;5.65;;
61108;SDS011;46995;55.740;37.402;2022-12-20T15:48:40;11.57;;;6.22;;
61108;SDS011;46995;55.740;37.402;2022-12-20T15:51:16;13.15;;;6.20;;
61108;SDS011;46995;55.740;37.402;2022-12-20T15:53:49;17.80;;;5.82;;
61108;SDS011;46995;55.740;37.402;2022-12-20T15:56:16;9.57;;;5.47;;
61108;SDS011;46995;55.740;37.402;2022-12-20T15:58:46;12.50;;;5.65;;
61108;SDS011;46995;55.740;37.402;2022-12-20T16:01:15;12.52;;;5.93;;
61108;SDS011;46995;55.740;37.402;2022-12-20T16:03:44;13.10;;;5.55;;
61108;SDS011;46995;55.740;37.402;2022-12-20T16:06:11;15.03;;;5.83;;
61108;SDS011;46995;55.740;37.402;2022-12-20T16:08:37;17.33;;;5.63;;
61108;SDS011;46995;55.740;37.402;2022-12-20T16:11:04;15.68;;;6.45;;
61108;SDS011;46995;55.740;37.402;2022-12-20T16:13:32;11.73;;;6.28;;
61108;SDS011;46995;55.740;37.402;2022-12-20T16:15:59;11.50;;;6.38;;
61108;SDS011;46995;55.740;37.402;2022-12-20T16:18:25;17.60;;;7.07;;
61108;SDS011;46995;55.740;37.402;2022-12-20T16:20:54;13.50;;;6.25;;
61108;SDS011;46995;55.740;37.402;2022-12-20T16:23:22;13.80;;;6.45;;
61108;SDS011;46995;55.740;37.402;2022-12-20T16:25:48;17.27;;;6.30;;
61108;SDS011;46995;55.740;37.402;2022-12-20T16:28:16;14.93;;;6.45;;
61108;SDS011;46995;55.740;37.402;2022-12-20T16:30:43;15.23;;;7.22;;
61108;SDS011;46995;55.740;37.402;2022-12-20T16:33:16;15.88;;;6.43;;
61108;SDS011;46995;55.740;37.402;2022-12-20T16:35:45;12.65;;;6.72;;
61108;SDS011;46995;55.740;37.402;2022-12-20T16:38:10;15.02;;;6.72;;
61108;SDS011;46995;55.740;37.402;2022-12-20T16:40:36;13.50;;;6.97;;
61108;SDS011;46995;55.740;37.402;2022-12-20T16:43:02;16.80;;;6.05;;
61108;SDS011;46995;55.740;37.402;2022-12-20T16:45:28;15.30;;;7.13;;
61108;SDS011;46995;55.740;37.402;2022-12-20T16:47:56;17.00;;;7.10;;
61108;SDS011;46995;55.740;37.402;2022-12-20T16:50:23;17.55;;;7.13;;
61108;SDS011;46995;55.740;37.402;2022-12-20T16:52:51;16.05;;;6.35;;
61108;SDS011;46995;55.740;37.402;2022-12-20T16:55:21;12.90;;;5.93;;
61108;SDS011;46995;55.740;37.402;2022-12-20T16:57:51;11.82;;;5.82;;
61108;SDS011;46995;55.740;37.402;2022-12-20T17:00:22;13.60;;;6.25;;